sensor_id;sensor_type;location;lat;lon;timestamp;P1;durP1;ratioP1;P2;durP2;ratioP2
52320;SDS011;38261;54.090;13.382;2022-10-30T00:01:02;28.23;;;16.33;;
52320;SDS011;38261;54.090;13.382;2022-10-30T00:02:24;31.47;;;18.33;;
52320;SDS011;38261;54.090;13.382;2022-10-30T00:03:46;42.00;;;18.07;;
52320;SDS011;38261;54.090;13.382;2022-10-30T00:05:08;31.87;;;19.03;;
52320;SDS011;38261;54.090;13.382;2022-10-30T00:06:30;34.90;;;17.07;;
52320;SDS011;38261;54.090;13.382;2022-10-30T00:07:55;29.70;;;17.70;;
52320;SDS011;38261;54.090;13.382;2022-10-30T00:09:18;35.07;;;18.50;;
52320;SDS011;38261;54.090;13.382;2022-10-30T00:10:40;39.50;;;18.20;;
52320;SDS011;38261;54.090;13.382;2022-10-30T00:12:02;30.70;;;17.70;;
52320;SDS011;38261;54.090;13.382;2022-10-30T00:13:25;29.40;;;16.70;;
52320;SDS011;38261;54.090;13.382;2022-10-30T00:14:47;34.97;;;17.53;;
52320;SDS011;38261;54.090;13.382;2022-10-30T00:16:09;31.70;;;17.70;;
52320;SDS011;38261;54.090;13.382;2022-10-30T00:17:31;32.17;;;18.30;;
52320;SDS011;38261;54.090;13.382;2022-10-30T00:18:54;27.97;;;16.50;;
52320;SDS011;38261;54.090;13.382;2022-10-30T00:20:16;29.20;;;18.40;;
52320;SDS011;38261;54.090;13.382;2022-10-30T00:21:38;33.33;;;17.97;;
52320;SDS011;38261;54.090;13.382;2022-10-30T00:23:00;32.90;;;18.63;;
52320;SDS011;38261;54.090;13.382;2022-10-30T00:24:22;29.40;;;17.17;;
52320;SDS011;38261;54.090;13.382;2022-10-30T00:25:45;30.17;;;18.20;;
52320;SDS011;38261;54.090;13.382;2022-10-30T00:27:07;37.30;;;19.50;;
52320;SDS011;38261;54.090;13.382;2022-10-30T00:28:29;37.87;;;18.93;;
52320;SDS011;38261;54.090;13.382;2022-10-30T00:29:51;34.30;;;19.00;;
52320;SDS011;38261;54.090;13.382;2022-10-30T00:31:13;37.93;;;20.97;;
52320;SDS011;38261;54.090;13.382;2022-10-30T00:32:35;30.03;;;18.00;;
52320;SDS011;38261;54.090;13.382;2022-10-30T00:33:57;36.53;;;18.77;;
52320;SDS011;38261;54.090;13.382;2022-10-30T00:35:19;26.73;;;17.43;;
52320;SDS011;38261;54.090;13.382;2022-10-30T00:36:41;36.00;;;18.10;;
52320;SDS011;38261;54.090;13.382;2022-10-30T00:38:03;33.10;;;19.07;;
52320;SDS011;38261;54.090;13.382;2022-10-30T00:39:25;36.07;;;19.17;;
52320;SDS011;38261;54.090;13.382;2022-10-30T00:40:47;35.90;;;18.83;;
52320;SDS011;38261;54.090;13.382;2022-10-30T00:42:11;30.83;;;17.77;;
52320;SDS011;38261;54.090;13.382;2022-10-30T00:43:35;31.20;;;18.60;;
52320;SDS011;38261;54.090;13.382;2022-10-30T00:44:59;42.43;;;19.50;;
52320;SDS011;38261;54.090;13.382;2022-10-30T00:46:34;34.93;;;17.93;;
52320;SDS011;38261;54.090;13.382;2022-10-30T00:48:00;31.03;;;17.60;;
52320;SDS011;38261;54.090;13.382;2022-10-30T00:49:24;33.87;;;17.53;;
52320;SDS011;38261;54.090;13.382;2022-10-30T00:50:46;28.33;;;17.20;;
52320;SDS011;38261;54.090;13.382;2022-10-30T00:52:08;35.53;;;18.93;;
52320;SDS011;38261;54.090;13.382;2022-10-30T00:53:31;37.37;;;18.50;;
52320;SDS011;38261;54.090;13.382;2022-10-30T00:54:53;32.73;;;18.03;;
52320;SDS011;38261;54.090;13.382;2022-10-30T00:56:18;32.13;;;18.27;;
52320;SDS011;38261;54.090;13.382;2022-10-30T00:57:42;26.77;;;17.57;;
52320;SDS011;38261;54.090;13.382;2022-10-30T00:59:10;37.63;;;19.50;;
52320;SDS011;38261;54.090;13.382;2022-10-30T01:00:36;32.93;;;18.80;;
52320;SDS011;38261;54.090;13.382;2022-10-30T01:02:02;33.20;;;17.60;;
52320;SDS011;38261;54.090;13.382;2022-10-30T01:03:25;37.87;;;18.50;;
52320;SDS011;38261;54.090;13.382;2022-10-30T01:04:48;33.10;;;18.03;;
52320;SDS011;38261;54.090;13.382;2022-10-30T01:06:13;31.80;;;18.83;;
52320;SDS011;38261;54.090;13.382;2022-10-30T01:07:37;33.00;;;19.23;;
52320;SDS011;38261;54.090;13.382;2022-10-30T01:08:59;35.50;;;18.73;;
52320;SDS011;38261;54.090;13.382;2022-10-30T01:10:23;36.17;;;19.70;;
52320;SDS011;38261;54.090;13.382;2022-10-30T01:11:45;37.60;;;19.57;;
52320;SDS011;38261;54.090;13.382;2022-10-30T01:13:07;35.43;;;19.93;;
52320;SDS011;38261;54.090;13.382;2022-10-30T01:14:30;28.83;;;18.40;;
52320;SDS011;38261;54.090;13.382;2022-10-30T01:17:51;32.23;;;18.87;;
52320;SDS011;38261;54.090;13.382;2022-10-30T01:20:18;34.10;;;19.03;;
52320;SDS011;38261;54.090;13.382;2022-10-30T01:25:10;36.13;;;19.20;;
52320;SDS011;38261;54.090;13.382;2022-10-30T01:27:08;36.80;;;19.80;;
52320;SDS011;38261;54.090;13.382;2022-10-30T01:32:54;44.03;;;19.50;;
52320;SDS011;38261;54.090;13.382;2022-10-30T01:38:03;37.20;;;18.80;;
52320;SDS011;38261;54.090;13.382;2022-10-30T01:39:32;34.90;;;19.23;;
52320;SDS011;38261;54.090;13.382;2022-10-30T01:40:59;32.03;;;18.83;;
52320;SDS011;38261;54.090;13.382;2022-10-30T01:44:13;36.83;;;19.60;;
52320;SDS011;38261;54.090;13.382;2022-10-30T01:45:49;27.77;;;18.40;;
52320;SDS011;38261;54.090;13.382;2022-10-30T01:47:31;35.80;;;18.27;;
52320;SDS011;38261;54.090;13.382;2022-10-30T01:52:58;36.57;;;19.60;;
52320;SDS011;38261;54.090;13.382;2022-10-30T01:54:37;34.73;;;17.87;;
52320;SDS011;38261;54.090;13.382;2022-10-30T01:57:51;38.10;;;20.10;;
52320;SDS011;38261;54.090;13.382;2022-10-30T02:01:04;34.60;;;18.27;;
52320;SDS011;38261;54.090;13.382;2022-10-30T02:02:27;36.30;;;18.70;;
52320;SDS011;38261;54.090;13.382;2022-10-30T02:03:51;38.30;;;19.30;;
52320;SDS011;38261;54.090;13.382;2022-10-30T02:05:16;33.33;;;18.50;;
52320;SDS011;38261;54.090;13.382;2022-10-30T02:06:45;35.83;;;18.23;;
52320;SDS011;38261;54.090;13.382;2022-10-30T02:08:08;34.30;;;18.97;;
52320;SDS011;38261;54.090;13.382;2022-10-30T02:09:30;30.90;;;18.70;;
52320;SDS011;38261;54.090;13.382;2022-10-30T02:10:52;35.17;;;18.50;;
52320;SDS011;38261;54.090;13.382;2022-10-30T02:12:15;42.83;;;19.77;;
52320;SDS011;38261;54.090;13.382;2022-10-30T02:13:39;33.93;;;18.83;;
52320;SDS011;38261;54.090;13.382;2022-10-30T02:15:01;41.87;;;19.37;;
52320;SDS011;38261;54.090;13.382;2022-10-30T02:16:23;39.37;;;19.20;;
52320;SDS011;38261;54.090;13.382;2022-10-30T02:17:45;28.33;;;18.03;;
52320;SDS011;38261;54.090;13.382;2022-10-30T02:19:08;34.10;;;18.53;;
52320;SDS011;38261;54.090;13.382;2022-10-30T02:20:30;38.07;;;20.87;;
52320;SDS011;38261;54.090;13.382;2022-10-30T02:21:52;37.43;;;19.90;;
52320;SDS011;38261;54.090;13.382;2022-10-30T02:23:15;37.67;;;19.00;;
52320;SDS011;38261;54.090;13.382;2022-10-30T02:24:39;35.57;;;19.10;;
52320;SDS011;38261;54.090;13.382;2022-10-30T02:26:01;41.70;;;21.40;;
52320;SDS011;38261;54.090;13.382;2022-10-30T02:27:24;40.63;;;21.13;;
52320;SDS011;38261;54.090;13.382;2022-10-30T02:28:46;41.27;;;19.10;;
52320;SDS011;38261;54.090;13.382;2022-10-30T02:30:08;34.83;;;18.90;;
52320;SDS011;38261;54.090;13.382;2022-10-30T02:31:31;33.57;;;19.10;;
52320;SDS011;38261;54.090;13.382;2022-10-30T02:32:53;35.60;;;19.20;;
52320;SDS011;38261;54.090;13.382;2022-10-30T02:34:15;35.57;;;19.63;;
52320;SDS011;38261;54.090;13.382;2022-10-30T02:35:37;35.30;;;19.20;;
52320;SDS011;38261;54.090;13.382;2022-10-30T02:36:59;35.17;;;20.20;;
52320;SDS011;38261;54.090;13.382;2022-10-30T02:38:22;31.97;;;20.10;;
52320;SDS011;38261;54.090;13.382;2022-10-30T02:39:44;35.90;;;19.23;;
52320;SDS011;38261;54.090;13.382;2022-10-30T02:41:06;34.83;;;20.33;;
52320;SDS011;38261;54.090;13.382;2022-10-30T02:42:28;33.40;;;19.90;;
52320;SDS011;38261;54.090;13.382;2022-10-30T02:43:50;34.30;;;19.20;;
52320;SDS011;38261;54.090;13.382;2022-10-30T02:45:13;32.50;;;18.70;;
52320;SDS011;38261;54.090;13.382;2022-10-30T02:46:35;35.20;;;20.00;;
52320;SDS011;38261;54.090;13.382;2022-10-30T02:48:01;41.57;;;20.30;;
52320;SDS011;38261;54.090;13.382;2022-10-30T02:49:23;35.13;;;20.87;;
52320;SDS011;38261;54.090;13.382;2022-10-30T02:50:45;43.47;;;20.17;;
52320;SDS011;38261;54.090;13.382;2022-10-30T02:52:08;38.40;;;19.77;;
52320;SDS011;38261;54.090;13.382;2022-10-30T02:53:30;37.90;;;20.77;;
52320;SDS011;38261;54.090;13.382;2022-10-30T02:54:53;35.87;;;18.80;;
52320;SDS011;38261;54.090;13.382;2022-10-30T02:56:16;34.23;;;18.30;;
52320;SDS011;38261;54.090;13.382;2022-10-30T02:57:38;34.80;;;20.10;;
52320;SDS011;38261;54.090;13.382;2022-10-30T02:59:00;35.17;;;20.23;;
52320;SDS011;38261;54.090;13.382;2022-10-30T03:00:22;47.00;;;21.20;;
52320;SDS011;38261;54.090;13.382;2022-10-30T03:01:44;34.53;;;19.40;;
52320;SDS011;38261;54.090;13.382;2022-10-30T03:03:06;37.97;;;19.00;;
52320;SDS011;38261;54.090;13.382;2022-10-30T03:04:28;38.80;;;19.80;;
52320;SDS011;38261;54.090;13.382;2022-10-30T03:05:51;37.17;;;20.10;;
52320;SDS011;38261;54.090;13.382;2022-10-30T03:07:13;34.10;;;18.40;;
52320;SDS011;38261;54.090;13.382;2022-10-30T03:08:35;34.33;;;20.73;;
52320;SDS011;38261;54.090;13.382;2022-10-30T03:09:57;36.60;;;19.20;;
52320;SDS011;38261;54.090;13.382;2022-10-30T03:11:19;33.90;;;19.90;;
52320;SDS011;38261;54.090;13.382;2022-10-30T03:12:42;32.70;;;20.40;;
52320;SDS011;38261;54.090;13.382;2022-10-30T03:14:04;36.17;;;19.37;;
52320;SDS011;38261;54.090;13.382;2022-10-30T03:15:26;35.90;;;19.73;;
52320;SDS011;38261;54.090;13.382;2022-10-30T03:16:48;37.90;;;19.87;;
52320;SDS011;38261;54.090;13.382;2022-10-30T03:18:12;47.27;;;22.40;;
52320;SDS011;38261;54.090;13.382;2022-10-30T03:19:34;38.27;;;21.87;;
52320;SDS011;38261;54.090;13.382;2022-10-30T03:20:57;37.50;;;19.70;;
52320;SDS011;38261;54.090;13.382;2022-10-30T03:22:20;43.47;;;22.80;;
52320;SDS011;38261;54.090;13.382;2022-10-30T03:23:42;40.93;;;20.07;;
52320;SDS011;38261;54.090;13.382;2022-10-30T03:25:04;40.97;;;20.70;;
52320;SDS011;38261;54.090;13.382;2022-10-30T03:26:26;42.57;;;18.90;;
52320;SDS011;38261;54.090;13.382;2022-10-30T03:27:49;38.90;;;19.77;;
52320;SDS011;38261;54.090;13.382;2022-10-30T03:29:11;40.93;;;21.23;;
52320;SDS011;38261;54.090;13.382;2022-10-30T03:30:33;44.27;;;20.90;;
52320;SDS011;38261;54.090;13.382;2022-10-30T03:31:55;45.73;;;21.43;;
52320;SDS011;38261;54.090;13.382;2022-10-30T03:33:17;38.57;;;21.40;;
52320;SDS011;38261;54.090;13.382;2022-10-30T03:34:39;42.00;;;19.67;;
52320;SDS011;38261;54.090;13.382;2022-10-30T03:36:01;40.90;;;20.77;;
52320;SDS011;38261;54.090;13.382;2022-10-30T03:37:25;45.03;;;21.10;;
52320;SDS011;38261;54.090;13.382;2022-10-30T03:38:47;35.67;;;20.47;;
52320;SDS011;38261;54.090;13.382;2022-10-30T03:40:09;44.17;;;23.30;;
52320;SDS011;38261;54.090;13.382;2022-10-30T03:41:32;53.57;;;21.83;;
52320;SDS011;38261;54.090;13.382;2022-10-30T03:42:54;39.37;;;21.87;;
52320;SDS011;38261;54.090;13.382;2022-10-30T03:44:16;57.47;;;21.53;;
52320;SDS011;38261;54.090;13.382;2022-10-30T03:45:38;48.77;;;20.90;;
52320;SDS011;38261;54.090;13.382;2022-10-30T03:47:01;44.30;;;20.30;;
52320;SDS011;38261;54.090;13.382;2022-10-30T03:48:23;44.30;;;20.43;;
52320;SDS011;38261;54.090;13.382;2022-10-30T03:49:47;38.00;;;20.27;;
52320;SDS011;38261;54.090;13.382;2022-10-30T03:51:09;44.80;;;21.70;;
52320;SDS011;38261;54.090;13.382;2022-10-30T03:52:31;41.80;;;20.13;;
52320;SDS011;38261;54.090;13.382;2022-10-30T03:53:53;39.97;;;21.73;;
52320;SDS011;38261;54.090;13.382;2022-10-30T03:55:15;39.50;;;22.30;;
52320;SDS011;38261;54.090;13.382;2022-10-30T03:56:37;43.43;;;20.30;;
52320;SDS011;38261;54.090;13.382;2022-10-30T03:57:59;39.73;;;20.80;;
52320;SDS011;38261;54.090;13.382;2022-10-30T03:59:21;34.73;;;18.57;;
52320;SDS011;38261;54.090;13.382;2022-10-30T04:00:43;43.33;;;20.90;;
52320;SDS011;38261;54.090;13.382;2022-10-30T04:02:05;41.53;;;20.00;;
52320;SDS011;38261;54.090;13.382;2022-10-30T04:03:28;39.43;;;21.57;;
52320;SDS011;38261;54.090;13.382;2022-10-30T04:04:50;41.67;;;20.37;;
52320;SDS011;38261;54.090;13.382;2022-10-30T04:06:12;40.80;;;21.40;;
52320;SDS011;38261;54.090;13.382;2022-10-30T04:07:34;41.40;;;21.33;;
52320;SDS011;38261;54.090;13.382;2022-10-30T04:08:56;38.37;;;20.40;;
52320;SDS011;38261;54.090;13.382;2022-10-30T04:10:18;39.87;;;20.37;;
52320;SDS011;38261;54.090;13.382;2022-10-30T04:11:44;49.83;;;22.30;;
52320;SDS011;38261;54.090;13.382;2022-10-30T04:13:06;39.47;;;21.10;;
52320;SDS011;38261;54.090;13.382;2022-10-30T04:14:29;38.57;;;21.77;;
52320;SDS011;38261;54.090;13.382;2022-10-30T04:15:51;44.30;;;21.27;;
52320;SDS011;38261;54.090;13.382;2022-10-30T04:17:17;47.80;;;21.63;;
52320;SDS011;38261;54.090;13.382;2022-10-30T04:18:39;44.00;;;21.17;;
52320;SDS011;38261;54.090;13.382;2022-10-30T04:20:02;45.53;;;22.13;;
52320;SDS011;38261;54.090;13.382;2022-10-30T04:21:24;39.27;;;22.37;;
52320;SDS011;38261;54.090;13.382;2022-10-30T04:22:46;45.90;;;20.80;;
52320;SDS011;38261;54.090;13.382;2022-10-30T04:24:08;41.83;;;20.77;;
52320;SDS011;38261;54.090;13.382;2022-10-30T04:25:31;45.70;;;21.27;;
52320;SDS011;38261;54.090;13.382;2022-10-30T04:26:55;45.27;;;22.70;;
52320;SDS011;38261;54.090;13.382;2022-10-30T04:28:17;44.47;;;21.40;;
52320;SDS011;38261;54.090;13.382;2022-10-30T04:29:39;45.17;;;20.87;;
52320;SDS011;38261;54.090;13.382;2022-10-30T04:31:02;49.97;;;21.87;;
52320;SDS011;38261;54.090;13.382;2022-10-30T04:32:24;40.60;;;21.83;;
52320;SDS011;38261;54.090;13.382;2022-10-30T04:33:46;45.63;;;22.77;;
52320;SDS011;38261;54.090;13.382;2022-10-30T04:35:08;45.70;;;21.30;;
52320;SDS011;38261;54.090;13.382;2022-10-30T04:36:30;44.33;;;22.20;;
52320;SDS011;38261;54.090;13.382;2022-10-30T04:37:59;44.30;;;23.83;;
52320;SDS011;38261;54.090;13.382;2022-10-30T04:39:23;41.60;;;21.27;;
52320;SDS011;38261;54.090;13.382;2022-10-30T04:40:45;41.23;;;21.13;;
52320;SDS011;38261;54.090;13.382;2022-10-30T04:42:07;40.00;;;20.07;;
52320;SDS011;38261;54.090;13.382;2022-10-30T04:43:29;47.33;;;22.97;;
52320;SDS011;38261;54.090;13.382;2022-10-30T04:44:51;45.93;;;21.90;;
52320;SDS011;38261;54.090;13.382;2022-10-30T04:46:13;48.40;;;21.07;;
52320;SDS011;38261;54.090;13.382;2022-10-30T04:47:35;41.37;;;19.80;;
52320;SDS011;38261;54.090;13.382;2022-10-30T04:48:57;47.83;;;21.23;;
52320;SDS011;38261;54.090;13.382;2022-10-30T04:50:19;48.13;;;20.80;;
52320;SDS011;38261;54.090;13.382;2022-10-30T04:51:41;38.33;;;21.23;;
52320;SDS011;38261;54.090;13.382;2022-10-30T04:53:05;43.97;;;20.40;;
52320;SDS011;38261;54.090;13.382;2022-10-30T04:54:33;50.53;;;22.07;;
52320;SDS011;38261;54.090;13.382;2022-10-30T04:55:55;51.87;;;21.40;;
52320;SDS011;38261;54.090;13.382;2022-10-30T04:57:17;41.93;;;21.40;;
52320;SDS011;38261;54.090;13.382;2022-10-30T04:58:39;44.67;;;20.67;;
52320;SDS011;38261;54.090;13.382;2022-10-30T05:00:05;45.57;;;22.37;;
52320;SDS011;38261;54.090;13.382;2022-10-30T05:01:28;45.40;;;21.87;;
52320;SDS011;38261;54.090;13.382;2022-10-30T05:02:50;44.07;;;21.00;;
52320;SDS011;38261;54.090;13.382;2022-10-30T05:04:12;42.20;;;21.10;;
52320;SDS011;38261;54.090;13.382;2022-10-30T05:05:34;48.00;;;22.30;;
52320;SDS011;38261;54.090;13.382;2022-10-30T05:06:56;38.90;;;19.87;;
52320;SDS011;38261;54.090;13.382;2022-10-30T05:08:18;53.30;;;22.17;;
52320;SDS011;38261;54.090;13.382;2022-10-30T05:09:40;43.50;;;22.37;;
52320;SDS011;38261;54.090;13.382;2022-10-30T05:11:03;45.43;;;21.47;;
52320;SDS011;38261;54.090;13.382;2022-10-30T05:12:25;45.27;;;21.03;;
52320;SDS011;38261;54.090;13.382;2022-10-30T05:13:47;43.13;;;22.20;;
52320;SDS011;38261;54.090;13.382;2022-10-30T05:15:10;45.30;;;21.47;;
52320;SDS011;38261;54.090;13.382;2022-10-30T05:16:33;44.30;;;19.80;;
52320;SDS011;38261;54.090;13.382;2022-10-30T05:17:55;52.33;;;21.00;;
52320;SDS011;38261;54.090;13.382;2022-10-30T05:19:17;46.30;;;21.40;;
52320;SDS011;38261;54.090;13.382;2022-10-30T05:20:40;48.13;;;21.50;;
52320;SDS011;38261;54.090;13.382;2022-10-30T05:22:02;43.67;;;21.53;;
52320;SDS011;38261;54.090;13.382;2022-10-30T05:23:24;48.40;;;22.10;;
52320;SDS011;38261;54.090;13.382;2022-10-30T05:24:46;41.03;;;20.37;;
52320;SDS011;38261;54.090;13.382;2022-10-30T05:26:08;40.17;;;20.70;;
52320;SDS011;38261;54.090;13.382;2022-10-30T05:27:30;54.93;;;22.30;;
52320;SDS011;38261;54.090;13.382;2022-10-30T05:28:52;36.13;;;19.23;;
52320;SDS011;38261;54.090;13.382;2022-10-30T05:30:14;59.57;;;22.27;;
52320;SDS011;38261;54.090;13.382;2022-10-30T05:31:36;46.00;;;21.57;;
52320;SDS011;38261;54.090;13.382;2022-10-30T05:33:02;38.73;;;21.40;;
52320;SDS011;38261;54.090;13.382;2022-10-30T05:34:26;42.60;;;21.03;;
52320;SDS011;38261;54.090;13.382;2022-10-30T05:35:48;45.00;;;22.13;;
52320;SDS011;38261;54.090;13.382;2022-10-30T05:37:10;43.03;;;21.47;;
52320;SDS011;38261;54.090;13.382;2022-10-30T05:38:32;33.97;;;19.50;;
52320;SDS011;38261;54.090;13.382;2022-10-30T05:39:54;43.90;;;21.20;;
52320;SDS011;38261;54.090;13.382;2022-10-30T05:41:16;42.67;;;22.30;;
52320;SDS011;38261;54.090;13.382;2022-10-30T05:42:43;49.67;;;22.00;;
52320;SDS011;38261;54.090;13.382;2022-10-30T05:44:06;44.63;;;21.50;;
52320;SDS011;38261;54.090;13.382;2022-10-30T05:45:28;47.77;;;22.57;;
52320;SDS011;38261;54.090;13.382;2022-10-30T05:46:50;53.10;;;22.77;;
52320;SDS011;38261;54.090;13.382;2022-10-30T05:48:12;44.87;;;20.40;;
52320;SDS011;38261;54.090;13.382;2022-10-30T05:49:34;45.00;;;20.53;;
52320;SDS011;38261;54.090;13.382;2022-10-30T05:50:56;46.73;;;21.03;;
52320;SDS011;38261;54.090;13.382;2022-10-30T05:52:19;41.03;;;20.77;;
52320;SDS011;38261;54.090;13.382;2022-10-30T05:53:41;55.67;;;23.20;;
52320;SDS011;38261;54.090;13.382;2022-10-30T05:55:03;43.03;;;22.17;;
52320;SDS011;38261;54.090;13.382;2022-10-30T05:56:25;51.90;;;24.57;;
52320;SDS011;38261;54.090;13.382;2022-10-30T05:57:47;40.10;;;20.67;;
52320;SDS011;38261;54.090;13.382;2022-10-30T05:59:09;52.53;;;21.30;;
52320;SDS011;38261;54.090;13.382;2022-10-30T06:00:32;54.20;;;23.00;;
52320;SDS011;38261;54.090;13.382;2022-10-30T06:01:56;41.63;;;21.07;;
52320;SDS011;38261;54.090;13.382;2022-10-30T06:03:18;42.17;;;20.80;;
52320;SDS011;38261;54.090;13.382;2022-10-30T06:04:40;43.77;;;20.73;;
52320;SDS011;38261;54.090;13.382;2022-10-30T06:06:02;41.13;;;21.30;;
52320;SDS011;38261;54.090;13.382;2022-10-30T06:07:24;50.40;;;21.70;;
52320;SDS011;38261;54.090;13.382;2022-10-30T06:08:47;38.93;;;20.60;;
52320;SDS011;38261;54.090;13.382;2022-10-30T06:10:09;40.60;;;21.10;;
52320;SDS011;38261;54.090;13.382;2022-10-30T06:11:31;44.30;;;21.50;;
52320;SDS011;38261;54.090;13.382;2022-10-30T06:12:53;46.77;;;22.93;;
52320;SDS011;38261;54.090;13.382;2022-10-30T06:14:16;42.03;;;21.53;;
52320;SDS011;38261;54.090;13.382;2022-10-30T06:15:39;53.30;;;20.90;;
52320;SDS011;38261;54.090;13.382;2022-10-30T06:17:01;33.77;;;20.00;;
52320;SDS011;38261;54.090;13.382;2022-10-30T06:18:23;47.27;;;23.03;;
52320;SDS011;38261;54.090;13.382;2022-10-30T06:19:45;47.63;;;22.37;;
52320;SDS011;38261;54.090;13.382;2022-10-30T06:21:07;51.20;;;22.20;;
52320;SDS011;38261;54.090;13.382;2022-10-30T06:22:29;37.37;;;20.60;;
52320;SDS011;38261;54.090;13.382;2022-10-30T06:23:51;47.47;;;21.07;;
52320;SDS011;38261;54.090;13.382;2022-10-30T06:25:13;45.63;;;22.27;;
52320;SDS011;38261;54.090;13.382;2022-10-30T06:26:35;41.73;;;21.47;;
52320;SDS011;38261;54.090;13.382;2022-10-30T06:27:57;55.70;;;23.87;;
52320;SDS011;38261;54.090;13.382;2022-10-30T06:29:20;74.50;;;31.37;;
52320;SDS011;38261;54.090;13.382;2022-10-30T06:30:42;63.17;;;34.00;;
52320;SDS011;38261;54.090;13.382;2022-10-30T06:32:05;55.13;;;29.17;;
52320;SDS011;38261;54.090;13.382;2022-10-30T06:33:27;46.37;;;23.53;;
52320;SDS011;38261;54.090;13.382;2022-10-30T06:34:49;60.23;;;27.00;;
52320;SDS011;38261;54.090;13.382;2022-10-30T06:36:11;52.23;;;27.03;;
52320;SDS011;38261;54.090;13.382;2022-10-30T06:37:33;44.10;;;27.17;;
52320;SDS011;38261;54.090;13.382;2022-10-30T06:38:55;45.30;;;25.00;;
52320;SDS011;38261;54.090;13.382;2022-10-30T06:40:17;48.90;;;23.40;;
52320;SDS011;38261;54.090;13.382;2022-10-30T06:41:40;44.00;;;23.47;;
52320;SDS011;38261;54.090;13.382;2022-10-30T06:43:02;41.50;;;21.70;;
52320;SDS011;38261;54.090;13.382;2022-10-30T06:44:24;48.53;;;21.93;;
52320;SDS011;38261;54.090;13.382;2022-10-30T06:45:46;44.20;;;21.07;;
52320;SDS011;38261;54.090;13.382;2022-10-30T06:47:08;36.30;;;20.27;;
52320;SDS011;38261;54.090;13.382;2022-10-30T06:48:30;41.70;;;20.87;;
52320;SDS011;38261;54.090;13.382;2022-10-30T06:49:52;43.13;;;21.80;;
52320;SDS011;38261;54.090;13.382;2022-10-30T06:51:14;46.20;;;21.03;;
52320;SDS011;38261;54.090;13.382;2022-10-30T06:52:37;53.83;;;21.97;;
52320;SDS011;38261;54.090;13.382;2022-10-30T06:53:59;48.50;;;22.33;;
52320;SDS011;38261;54.090;13.382;2022-10-30T06:55:21;42.23;;;20.97;;
52320;SDS011;38261;54.090;13.382;2022-10-30T06:56:48;46.20;;;20.57;;
52320;SDS011;38261;54.090;13.382;2022-10-30T06:58:10;43.70;;;20.20;;
52320;SDS011;38261;54.090;13.382;2022-10-30T06:59:32;44.10;;;20.60;;
52320;SDS011;38261;54.090;13.382;2022-10-30T07:00:54;37.87;;;19.20;;
52320;SDS011;38261;54.090;13.382;2022-10-30T07:02:16;46.07;;;20.83;;
52320;SDS011;38261;54.090;13.382;2022-10-30T07:03:38;36.40;;;19.97;;
52320;SDS011;38261;54.090;13.382;2022-10-30T07:05:01;42.40;;;20.83;;
52320;SDS011;38261;54.090;13.382;2022-10-30T07:06:23;43.80;;;21.20;;
52320;SDS011;38261;54.090;13.382;2022-10-30T07:07:45;42.13;;;22.87;;
52320;SDS011;38261;54.090;13.382;2022-10-30T07:09:07;49.63;;;22.30;;
52320;SDS011;38261;54.090;13.382;2022-10-30T07:10:29;49.00;;;22.53;;
52320;SDS011;38261;54.090;13.382;2022-10-30T07:11:52;47.83;;;22.17;;
52320;SDS011;38261;54.090;13.382;2022-10-30T07:13:17;39.87;;;23.43;;
52320;SDS011;38261;54.090;13.382;2022-10-30T07:14:39;42.60;;;22.77;;
52320;SDS011;38261;54.090;13.382;2022-10-30T07:16:02;41.70;;;20.60;;
52320;SDS011;38261;54.090;13.382;2022-10-30T07:17:24;50.33;;;22.47;;
52320;SDS011;38261;54.090;13.382;2022-10-30T07:18:46;47.80;;;23.00;;
52320;SDS011;38261;54.090;13.382;2022-10-30T07:20:08;43.47;;;22.07;;
52320;SDS011;38261;54.090;13.382;2022-10-30T07:21:30;49.53;;;24.60;;
52320;SDS011;38261;54.090;13.382;2022-10-30T07:22:52;52.40;;;24.00;;
52320;SDS011;38261;54.090;13.382;2022-10-30T07:24:15;44.60;;;21.90;;
52320;SDS011;38261;54.090;13.382;2022-10-30T07:25:37;43.93;;;21.40;;
52320;SDS011;38261;54.090;13.382;2022-10-30T07:26:59;45.27;;;23.13;;
52320;SDS011;38261;54.090;13.382;2022-10-30T07:28:21;41.37;;;23.10;;
52320;SDS011;38261;54.090;13.382;2022-10-30T07:29:43;44.40;;;26.00;;
52320;SDS011;38261;54.090;13.382;2022-10-30T07:31:05;42.90;;;23.57;;
52320;SDS011;38261;54.090;13.382;2022-10-30T07:32:27;40.33;;;24.10;;
52320;SDS011;38261;54.090;13.382;2022-10-30T07:33:49;48.90;;;23.97;;
52320;SDS011;38261;54.090;13.382;2022-10-30T07:35:11;50.63;;;25.87;;
52320;SDS011;38261;54.090;13.382;2022-10-30T07:36:34;52.67;;;25.30;;
52320;SDS011;38261;54.090;13.382;2022-10-30T07:38:06;38.67;;;23.40;;
52320;SDS011;38261;54.090;13.382;2022-10-30T07:39:30;36.60;;;22.60;;
52320;SDS011;38261;54.090;13.382;2022-10-30T07:40:52;44.37;;;21.93;;
52320;SDS011;38261;54.090;13.382;2022-10-30T07:42:15;44.57;;;22.87;;
52320;SDS011;38261;54.090;13.382;2022-10-30T07:43:37;42.37;;;21.10;;
52320;SDS011;38261;54.090;13.382;2022-10-30T07:44:59;39.93;;;23.17;;
52320;SDS011;38261;54.090;13.382;2022-10-30T07:46:21;40.80;;;23.10;;
52320;SDS011;38261;54.090;13.382;2022-10-30T07:47:43;47.50;;;23.50;;
52320;SDS011;38261;54.090;13.382;2022-10-30T07:49:05;40.47;;;22.37;;
52320;SDS011;38261;54.090;13.382;2022-10-30T07:50:27;43.00;;;21.80;;
52320;SDS011;38261;54.090;13.382;2022-10-30T07:51:49;48.17;;;23.07;;
52320;SDS011;38261;54.090;13.382;2022-10-30T07:53:11;43.03;;;22.77;;
52320;SDS011;38261;54.090;13.382;2022-10-30T07:54:33;42.60;;;22.70;;
52320;SDS011;38261;54.090;13.382;2022-10-30T07:55:55;40.67;;;21.27;;
52320;SDS011;38261;54.090;13.382;2022-10-30T07:57:18;43.70;;;22.10;;
52320;SDS011;38261;54.090;13.382;2022-10-30T07:58:40;44.13;;;20.73;;
52320;SDS011;38261;54.090;13.382;2022-10-30T08:00:07;40.30;;;21.17;;
52320;SDS011;38261;54.090;13.382;2022-10-30T08:01:31;41.80;;;20.47;;
52320;SDS011;38261;54.090;13.382;2022-10-30T08:02:56;40.30;;;22.00;;
52320;SDS011;38261;54.090;13.382;2022-10-30T08:04:19;40.37;;;20.00;;
52320;SDS011;38261;54.090;13.382;2022-10-30T08:05:41;41.40;;;22.10;;
52320;SDS011;38261;54.090;13.382;2022-10-30T08:07:03;34.47;;;19.70;;
52320;SDS011;38261;54.090;13.382;2022-10-30T08:08:25;39.70;;;20.60;;
52320;SDS011;38261;54.090;13.382;2022-10-30T08:09:48;39.70;;;20.60;;
52320;SDS011;38261;54.090;13.382;2022-10-30T08:11:10;37.43;;;20.97;;
52320;SDS011;38261;54.090;13.382;2022-10-30T08:12:32;41.70;;;22.10;;
52320;SDS011;38261;54.090;13.382;2022-10-30T08:13:55;33.53;;;20.27;;
52320;SDS011;38261;54.090;13.382;2022-10-30T08:15:17;38.73;;;21.00;;
52320;SDS011;38261;54.090;13.382;2022-10-30T08:16:39;37.50;;;20.80;;
52320;SDS011;38261;54.090;13.382;2022-10-30T08:18:01;35.13;;;19.97;;
52320;SDS011;38261;54.090;13.382;2022-10-30T08:19:23;37.10;;;20.00;;
52320;SDS011;38261;54.090;13.382;2022-10-30T08:20:47;37.60;;;21.27;;
52320;SDS011;38261;54.090;13.382;2022-10-30T08:22:11;45.10;;;22.53;;